Time;durP1;ratioP1;P1;durP2;ratioP2;P2;SDS_P1;SDS_P2;PMS_P1;PMS_P2;Temp;Humidity;BMP_temperature;BMP_pressure;BME280_temperature;BME280_humidity;BME280_pressure;Samples;Min_cycle;Max_cycle;Signal;HPM_P1;HPM_P2
2021/03/22 00:00:53;;;;;;;18.05;12.28;;;;;;;0.99;61.73;99677.58;1798772;78;21160;-75
2021/03/22 00:03:22;;;;;;;18.48;12.88;;;;;;;0.99;61.82;99680.70;1819570;77;21140;-74
2021/03/22 00:05:53;;;;;;;19.23;13.45;;;;;;;0.95;61.96;99680.33;1809781;77;21216;-75
2021/03/22 00:08:21;;;;;;;15.18;10.32;;;;;;;0.93;62.00;99682.38;1825628;77;21212;-73
2021/03/22 00:10:51;;;;;;;16.00;10.85;;;;;;;0.89;62.16;99680.70;1847415;77;21104;-73
2021/03/22 00:13:22;;;;;;;17.98;12.23;;;;;;;0.88;62.23;99680.37;1840820;77;22163;-74
2021/03/22 00:15:55;;;;;;;18.20;12.37;;;;;;;0.85;62.39;99666.86;1828536;77;21064;-73
2021/03/22 00:18:27;;;;;;;17.82;12.98;;;;;;;0.85;62.45;99674.75;1809559;77;21116;-74
2021/03/22 00:20:56;;;;;;;17.75;11.40;;;;;;;0.82;62.55;99665.97;1795079;78;21088;-74
2021/03/22 00:23:24;;;;;;;19.05;12.63;;;;;;;0.80;62.63;99666.72;1817453;77;21088;-74
2021/03/22 00:25:53;;;;;;;18.67;12.68;;;;;;;0.77;62.76;99661.38;1817468;78;21265;-74
2021/03/22 00:28:22;;;;;;;20.30;13.32;;;;;;;0.76;62.88;99665.03;1811832;77;21617;-75
2021/03/22 00:30:50;;;;;;;18.02;12.18;;;;;;;0.76;62.98;99656.31;1848982;77;21560;-74
2021/03/22 00:33:20;;;;;;;18.40;12.73;;;;;;;0.76;63.06;99658.94;1841907;77;21172;-75
2021/03/22 00:35:50;;;;;;;18.48;12.78;;;;;;;0.74;63.16;99658.37;1838867;77;22007;-74
2021/03/22 00:38:19;;;;;;;16.97;11.18;;;;;;;0.73;63.22;99655.45;1845852;76;21359;-75
2021/03/22 00:40:49;;;;;;;17.98;12.33;;;;;;;0.73;63.26;99655.45;1829883;77;21148;-75
2021/03/22 00:43:16;;;;;;;20.00;13.00;;;;;;;0.73;63.30;99651.00;1840519;76;21112;-74
2021/03/22 00:45:48;;;;;;;16.32;10.55;;;;;;;0.72;63.35;99648.05;1818011;77;21094;-74
2021/03/22 00:48:16;;;;;;;19.35;12.98;;;;;;;0.70;63.36;99648.28;1843301;77;21144;-75
2021/03/22 00:50:44;;;;;;;18.17;12.55;;;;;;;0.66;63.44;99647.11;1812249;78;21213;-75
2021/03/22 00:53:14;;;;;;;18.85;12.20;;;;;;;0.65;63.53;99648.63;1804878;78;21195;-74
2021/03/22 00:55:43;;;;;;;16.85;12.13;;;;;;;0.63;63.60;99651.99;1819458;77;21143;-75
2021/03/22 00:58:12;;;;;;;19.67;12.43;;;;;;;0.60;63.72;99644.02;1806951;78;21152;-74
2021/03/22 01:00:49;;;;;;;20.48;13.13;;;;;;;0.61;63.81;99644.31;1819043;78;21683;-75
2021/03/22 01:03:25;;;;;;;19.67;13.25;;;;;;;0.62;63.87;99638.54;1825076;77;21202;-75
2021/03/22 01:05:54;;;;;;;17.12;12.35;;;;;;;0.64;63.91;99640.45;1809705;78;21180;-75
2021/03/22 01:08:24;;;;;;;18.40;12.60;;;;;;;0.65;63.90;99642.85;1817969;78;21153;-75
2021/03/22 01:10:58;;;;;;;18.67;12.98;;;;;;;0.66;63.92;99635.28;1812707;78;21128;-75
2021/03/22 01:13:37;;;;;;;19.05;13.30;;;;;;;0.67;63.93;99635.57;1812956;78;21164;-74
2021/03/22 01:16:07;;;;;;;19.85;13.20;;;;;;;0.68;63.97;99632.43;1836480;77;21375;-73
2021/03/22 01:18:41;;;;;;;17.57;12.28;;;;;;;0.68;63.97;99630.59;1790475;78;21232;-74
2021/03/22 01:21:20;;;;;;;17.12;11.55;;;;;;;0.68;64.04;99633.23;1810023;78;21125;-74
2021/03/22 01:23:48;;;;;;;18.23;12.75;;;;;;;0.68;64.13;99637.69;1813344;77;21151;-74
2021/03/22 01:26:19;;;;;;;18.05;12.85;;;;;;;0.67;64.21;99638.20;1815406;77;21193;-74
2021/03/22 01:28:47;;;;;;;19.92;12.82;;;;;;;0.66;64.25;99641.86;1797676;79;21449;-74
2021/03/22 01:31:16;;;;;;;17.27;12.13;;;;;;;0.68;64.31;99640.31;1827227;77;21147;-74
2021/03/22 01:33:48;;;;;;;18.55;11.97;;;;;;;0.69;64.37;99634.86;1830000;78;21195;-74
2021/03/22 01:36:31;;;;;;;19.20;13.20;;;;;;;0.68;64.42;99635.05;1822832;78;21139;-74
2021/03/22 01:39:03;;;;;;;19.40;12.63;;;;;;;0.70;64.43;99637.77;1819183;77;21152;-73
2021/03/22 01:41:42;;;;;;;19.98;13.28;;;;;;;0.74;64.44;99638.14;1807110;78;22395;-75
2021/03/22 01:44:18;;;;;;;20.77;13.60;;;;;;;0.75;64.44;99633.17;1817089;78;21188;-73
2021/03/22 01:46:54;;;;;;;19.65;13.35;;;;;;;0.78;64.40;99631.95;1819293;78;21131;-74
2021/03/22 01:49:25;;;;;;;17.25;11.73;;;;;;;0.80;64.37;99642.55;1836688;77;21171;-73
2021/03/22 01:51:53;;;;;;;18.90;13.80;;;;;;;0.83;64.34;99636.06;1810741;78;21094;-74
2021/03/22 01:54:22;;;;;;;18.05;12.78;;;;;;;0.85;64.35;99635.31;1838920;77;21525;-74
2021/03/22 01:56:53;;;;;;;18.48;13.30;;;;;;;0.85;64.34;99636.11;1853312;77;21132;-74
2021/03/22 01:59:30;;;;;;;18.82;12.75;;;;;;;0.83;64.35;99623.72;1839952;77;21140;-74
2021/03/22 02:02:02;;;;;;;20.25;13.18;;;;;;;0.84;64.40;99627.14;1838562;77;21671;-74
2021/03/22 02:04:30;;;;;;;16.23;11.95;;;;;;;0.82;64.45;99619.45;1836963;77;21139;-74
2021/03/22 02:06:59;;;;;;;18.82;13.48;;;;;;;0.83;64.46;99629.48;1820661;77;22265;-74
2021/03/22 02:09:27;;;;;;;18.17;12.93;;;;;;;0.82;64.48;99627.34;1791951;77;21682;-75
2021/03/22 02:11:57;;;;;;;18.50;13.32;;;;;;;0.81;64.57;99624.95;1818028;78;21583;-73
2021/03/22 02:14:25;;;;;;;16.40;11.28;;;;;;;0.79;64.63;99626.48;1799043;79;21085;-74
2021/03/22 02:17:22;;;;;;;19.57;13.53;;;;;;;0.80;64.67;99627.29;1821157;78;21045;-73
2021/03/22 02:20:13;;;;;;;17.95;12.47;;;;;;;0.81;64.67;99630.20;1809592;77;21379;-74
2021/03/22 02:23:09;;;;;;;17.10;10.78;;;;;;;0.81;64.73;99627.58;1818140;78;21602;-75
2021/03/22 02:26:14;;;;;;;19.05;13.68;;;;;;;0.80;64.78;99625.98;1838595;75;21632;-74
2021/03/22 02:29:24;;;;;;;18.12;12.70;;;;;;;0.74;64.88;99621.06;1728836;80;21273;-73
2021/03/22 02:32:30;;;;;;;17.10;11.40;;;;;;;0.69;65.01;99612.52;1822209;78;21052;-74
2021/03/22 02:35:09;;;;;;;18.55;11.95;;;;;;;0.67;65.15;99612.44;1826598;78;22076;-74
2021/03/22 02:37:45;;;;;;;16.90;11.90;;;;;;;0.64;65.25;99616.80;1811895;78;21195;-75
2021/03/22 02:40:34;;;;;;;18.10;12.15;;;;;;;0.62;65.33;99607.80;1819680;77;21056;-74
2021/03/22 02:43:03;;;;;;;19.40;12.07;;;;;;;0.64;65.38;99610.23;1813414;78;21113;-75
2021/03/22 02:45:38;;;;;;;18.32;12.90;;;;;;;0.65;65.42;99605.27;1793597;78;21152;-74
2021/03/22 02:48:08;;;;;;;18.90;11.83;;;;;;;0.65;65.38;99600.80;1813999;78;21340;-75
2021/03/22 02:50:39;;;;;;;21.82;13.98;;;;;;;0.68;65.39;99607.46;1818255;78;21143;-73
2021/03/22 02:53:45;;;;;;;17.40;13.08;;;;;;;0.68;65.39;99595.63;1820611;78;21187;-75
2021/03/22 02:56:43;;;;;;;18.00;12.18;;;;;;;0.71;65.37;99599.15;1816970;78;21152;-74
2021/03/22 02:59:25;;;;;;;17.50;11.53;;;;;;;0.70;65.37;99597.03;1804062;78;21520;-74
2021/03/22 03:02:03;;;;;;;18.00;12.00;;;;;;;0.75;65.40;99594.27;1825922;77;22736;-75
2021/03/22 03:04:37;;;;;;;15.63;10.48;;;;;;;0.64;65.47;99591.33;1793985;77;21686;-73
2021/03/22 03:07:09;;;;;;;17.70;12.03;;;;;;;0.63;65.67;99592.35;1835779;77;21816;-74
2021/03/22 03:09:39;;;;;;;19.73;13.48;;;;;;;0.64;65.59;99599.20;1830402;78;21182;-73
2021/03/22 03:12:21;;;;;;;19.62;13.60;;;;;;;0.65;65.60;99594.75;1821250;77;21111;-74
2021/03/22 03:14:53;;;;;;;19.45;13.00;;;;;;;0.68;65.62;99591.69;1828505;78;21147;-74
2021/03/22 03:17:22;;;;;;;18.10;12.37;;;;;;;0.69;65.63;99595.44;1831852;78;21163;-74
2021/03/22 03:19:52;;;;;;;19.05;12.70;;;;;;;0.72;65.58;99598.63;1827509;78;21987;-74
2021/03/22 03:22:21;;;;;;;19.50;13.30;;;;;;;0.73;65.61;99595.01;1823897;77;21440;-74
2021/03/22 03:24:49;;;;;;;21.17;14.05;;;;;;;0.75;65.58;99599.52;1828482;78;21112;-74
2021/03/22 03:27:17;;;;;;;23.87;14.65;;;;;;;0.79;65.55;99601.52;1823235;78;21160;-74
2021/03/22 03:29:46;;;;;;;21.17;14.63;;;;;;;0.80;65.45;99597.06;1827721;78;21156;-76
2021/03/22 03:32:18;;;;;;;18.07;12.85;;;;;;;0.81;65.46;99593.40;1820612;78;21218;-73
2021/03/22 03:34:46;;;;;;;;;;;;;;;0.81;65.41;99595.52;1823085;78;21199;-74
2021/03/22 03:37:14;;;;;;;19.75;13.93;;;;;;;0.82;65.39;99593.69;1831220;78;20266;-75
2021/03/22 03:39:42;;;;;;;18.55;13.53;;;;;;;0.82;65.34;99591.86;1834272;78;21140;-74
2021/03/22 03:42:11;;;;;;;19.92;13.35;;;;;;;0.81;65.36;99589.45;1819258;78;21163;-75
2021/03/22 03:44:39;;;;;;;20.75;13.48;;;;;;;0.82;65.35;99581.34;1831690;78;22157;-72
2021/03/22 03:47:07;;;;;;;21.93;14.43;;;;;;;0.84;65.36;99584.57;1835168;78;21115;-75
2021/03/22 03:49:35;;;;;;;19.82;13.75;;;;;;;0.87;65.37;99578.88;1830511;78;21216;-75
2021/03/22 03:52:05;;;;;;;20.00;14.55;;;;;;;0.90;65.37;99574.50;1823891;78;21179;-75
2021/03/22 03:54:34;;;;;;;19.50;13.80;;;;;;;0.93;65.38;99579.84;1824703;77;21156;-75
2021/03/22 03:57:04;;;;;;;22.58;14.30;;;;;;;0.96;65.33;99575.47;1826417;78;21513;-75
2021/03/22 03:59:32;;;;;;;17.87;12.05;;;;;;;0.99;65.30;99582.92;1802004;78;21121;-74
2021/03/22 04:02:00;;;;;;;20.52;14.23;;;;;;;1.00;65.20;99578.47;1818026;77;21176;-74
2021/03/22 04:04:28;;;;;;;21.15;13.53;;;;;;;0.89;65.28;99575.53;1819770;78;21168;-74
2021/03/22 04:06:56;;;;;;;20.27;14.25;;;;;;;0.87;65.35;99568.88;1841356;77;21092;-75
2021/03/22 04:09:25;;;;;;;19.20;13.90;;;;;;;0.89;65.39;99569.48;1814728;78;21588;-74
2021/03/22 04:11:54;;;;;;;19.67;14.23;;;;;;;0.91;65.42;99569.53;1845645;77;21151;-74
2021/03/22 04:14:25;;;;;;;19.73;13.22;;;;;;;0.95;65.41;99567.27;1846772;76;21163;-73
2021/03/22 04:16:54;;;;;;;21.02;14.75;;;;;;;0.97;65.41;99565.75;1837234;75;27194;-72
2021/03/22 04:19:22;;;;;;;20.48;14.13;;;;;;;0.97;65.42;99559.97;1847246;77;21533;-74
2021/03/22 04:21:51;;;;;;;20.17;14.47;;;;;;;0.98;65.37;99558.94;1816849;77;21509;-74
2021/03/22 04:24:20;;;;;;;21.00;14.90;;;;;;;1.00;65.47;99554.80;1816970;78;21172;-74
2021/03/22 04:26:47;;;;;;;21.25;14.38;;;;;;;1.04;65.52;99546.75;1809903;78;21132;-74
2021/03/22 04:29:16;;;;;;;19.75;14.53;;;;;;;1.08;65.56;99557.92;1839613;76;21591;-74
2021/03/22 04:31:44;;;;;;;21.27;14.65;;;;;;;1.14;65.61;99557.05;1797800;78;21222;-75
2021/03/22 04:34:13;;;;;;;21.00;14.68;;;;;;;1.16;65.60;99551.07;1810861;78;21544;-74
2021/03/22 04:36:40;;;;;;;19.92;14.25;;;;;;;1.22;65.59;99553.83;1811987;78;21215;-75
2021/03/22 04:39:09;;;;;;;18.75;13.90;;;;;;;1.23;65.54;99558.88;1816782;78;21649;-75
2021/03/22 04:41:38;;;;;;;21.37;14.60;;;;;;;1.24;65.52;99556.53;1821113;78;21136;-75
2021/03/22 04:44:07;;;;;;;21.02;14.90;;;;;;;1.30;65.50;99557.49;1814857;78;21172;-75
2021/03/22 04:46:37;;;;;;;20.32;14.53;;;;;;;1.34;65.49;99553.39;1805805;78;21394;-73
2021/03/22 04:49:06;;;;;;;24.47;15.95;;;;;;;1.40;65.52;99551.19;1813925;78;21184;-74
2021/03/22 04:51:34;;;;;;;21.57;14.90;;;;;;;1.40;65.45;99545.41;1818338;77;21101;-75
2021/03/22 04:54:02;;;;;;;20.23;14.63;;;;;;;1.39;65.41;99558.28;1807289;78;21089;-74
2021/03/22 04:56:30;;;;;;;18.90;14.25;;;;;;;1.38;65.21;99559.80;1816530;78;21164;-75
2021/03/22 04:58:58;;;;;;;20.43;14.63;;;;;;;1.34;65.26;99562.08;1819547;78;21192;-75
2021/03/22 05:01:27;;;;;;;21.73;15.05;;;;;;;1.36;65.28;99559.24;1818688;77;21160;-73
2021/03/22 05:03:55;;;;;;;20.57;14.90;;;;;;;1.39;65.29;99562.75;1810005;78;21252;-74
2021/03/22 05:06:24;;;;;;;21.30;15.13;;;;;;;1.42;65.28;99556.25;1809486;78;21199;-74
2021/03/22 05:08:56;;;;;;;18.57;14.05;;;;;;;1.51;65.27;99553.58;1808780;78;21163;-74
2021/03/22 05:11:25;;;;;;;21.50;14.65;;;;;;;1.60;65.17;99558.31;1810334;78;21385;-74
2021/03/22 05:13:53;;;;;;;20.05;14.63;;;;;;;1.67;65.02;99557.43;1807797;78;21073;-74
2021/03/22 05:16:21;;;;;;;20.45;14.20;;;;;;;1.74;64.93;99550.24;1818871;78;21057;-75
2021/03/22 05:18:50;;;;;;;20.25;14.90;;;;;;;1.81;64.82;99552.27;1821769;78;21053;-74
2021/03/22 05:21:17;;;;;;;21.15;14.63;;;;;;;1.90;64.67;99558.03;1821997;78;21120;-75
2021/03/22 05:23:47;;;;;;;20.88;14.78;;;;;;;1.97;64.46;99567.43;1814477;78;21198;-74
2021/03/22 05:26:14;;;;;;;17.98;11.95;;;;;;;2.01;64.24;99563.86;1813561;78;21176;-75
2021/03/22 05:28:44;;;;;;;19.82;14.75;;;;;;;2.01;63.56;99567.30;1817239;77;21077;-74
2021/03/22 05:31:12;;;;;;;21.40;15.23;;;;;;;1.91;63.56;99569.67;1823125;78;21049;-75
2021/03/22 05:33:40;;;;;;;21.05;15.30;;;;;;;1.84;63.66;99572.88;1815297;78;22511;-74
2021/03/22 05:36:09;;;;;;;19.62;14.25;;;;;;;1.82;63.73;99571.00;1812320;78;21088;-74
2021/03/22 05:38:38;;;;;;;20.37;14.10;;;;;;;1.87;63.75;99569.80;1800328;78;21224;-73
2021/03/22 05:41:13;;;;;;;19.30;14.20;;;;;;;1.96;63.74;99569.78;1818072;78;21648;-74
2021/03/22 05:44:01;;;;;;;18.73;13.75;;;;;;;2.05;63.63;99569.76;1785425;78;21168;-74
2021/03/22 05:46:53;;;;;;;18.80;13.80;;;;;;;2.11;63.39;99565.43;1805566;78;21142;-74
2021/03/22 05:49:44;;;;;;;15.23;10.90;;;;;;;2.19;63.24;99558.50;1798486;78;21207;-75
2021/03/22 05:52:50;;;;;;;19.70;14.20;;;;;;;2.29;62.88;99565.33;1814836;77;21207;-75
2021/03/22 05:55:41;;;;;;;16.75;12.40;;;;;;;2.27;62.67;99565.27;1803609;78;21208;-74
2021/03/22 05:58:42;;;;;;;20.52;14.28;;;;;;;2.26;62.31;99560.52;1819998;78;21151;-74
2021/03/22 06:01:39;;;;;;;20.80;15.00;;;;;;;2.22;62.24;99562.52;1813143;78;21195;-73
2021/03/22 06:04:30;;;;;;;19.70;13.98;;;;;;;2.20;62.32;99560.62;1807572;78;21439;-74
2021/03/22 06:07:00;;;;;;;16.62;13.08;;;;;;;2.26;62.42;99559.20;1809816;78;21596;-75
2021/03/22 06:09:56;;;;;;;18.27;13.00;;;;;;;2.36;62.20;99558.64;1821000;77;21183;-74
2021/03/22 06:12:54;;;;;;;17.65;12.33;;;;;;;2.40;62.05;99565.05;1803784;78;21128;-75
2021/03/22 06:15:51;;;;;;;21.55;13.83;;;;;;;2.49;61.92;99565.02;1814736;78;21655;-75
2021/03/22 06:18:40;;;;;;;20.40;13.58;;;;;;;2.57;61.33;99562.58;1797794;78;21218;-74
2021/03/22 06:21:11;;;;;;;19.42;14.38;;;;;;;2.55;61.15;99568.06;1813167;78;21195;-75
2021/03/22 06:23:44;;;;;;;18.82;13.45;;;;;;;2.62;61.17;99563.20;1818292;78;21156;-74
2021/03/22 06:26:30;;;;;;;19.20;13.15;;;;;;;2.68;60.94;99566.23;1809052;78;21653;-73
2021/03/22 06:29:03;;;;;;;17.85;12.07;;;;;;;2.75;60.71;99568.23;1815131;77;21135;-75
2021/03/22 06:31:41;;;;;;;20.83;14.70;;;;;;;2.81;60.50;99562.84;1815562;76;23951;-74
2021/03/22 06:34:14;;;;;;;19.92;14.13;;;;;;;2.78;60.47;99561.19;1792612;78;21137;-74
2021/03/22 06:36:43;;;;;;;21.37;14.55;;;;;;;2.84;60.27;99566.06;1794032;79;21366;-74
2021/03/22 06:39:12;;;;;;;18.57;13.35;;;;;;;2.87;59.90;99560.33;1800339;77;21605;-75
2021/03/22 06:41:55;;;;;;;16.23;11.15;;;;;;;2.93;59.54;99567.30;1762092;79;21235;-74
2021/03/22 06:44:37;;;;;;;18.85;13.53;;;;;;;2.93;59.42;99564.17;1788544;77;21167;-72
2021/03/22 06:47:16;;;;;;;19.12;13.38;;;;;;;2.99;59.24;99566.37;1793030;79;21127;-75
2021/03/22 06:49:49;;;;;;;19.95;14.28;;;;;;;3.05;59.06;99570.73;1795577;77;21481;-73
2021/03/22 06:52:23;;;;;;;21.82;14.50;;;;;;;3.10;58.68;99567.42;1790413;79;21657;-75
2021/03/22 06:54:56;;;;;;;19.20;13.05;;;;;;;3.18;58.49;99567.05;1788503;79;21138;-74
2021/03/22 06:57:27;;;;;;;20.55;14.38;;;;;;;3.26;57.94;99554.83;1796711;79;21207;-75
2021/03/22 07:00:15;;;;;;;16.12;11.28;;;;;;;3.35;57.77;99558.68;1794242;79;21108;-74
2021/03/22 07:02:59;;;;;;;19.23;13.88;;;;;;;3.44;57.13;99562.56;1803417;79;21427;-73
2021/03/22 07:05:38;;;;;;;18.45;13.28;;;;;;;3.53;57.08;99572.25;1801210;77;21198;-74
2021/03/22 07:08:16;;;;;;;22.00;14.20;;;;;;;3.61;56.01;99566.58;1802490;79;21621;-75
2021/03/22 07:10:55;;;;;;;19.02;13.65;;;;;;;3.63;56.26;99576.92;1792925;77;21179;-76
2021/03/22 07:13:26;;;;;;;18.52;13.20;;;;;;;3.68;55.76;99583.61;1789316;79;21206;-75
2021/03/22 07:15:56;;;;;;;17.02;12.40;;;;;;;3.70;55.80;99575.73;1790501;79;21333;-74
2021/03/22 07:18:32;;;;;;;22.55;14.28;;;;;;;3.78;55.58;99576.39;1800257;79;21681;-75
2021/03/22 07:21:09;;;;;;;15.75;12.15;;;;;;;3.78;55.41;99575.87;1790377;79;21220;-75
2021/03/22 07:23:49;;;;;;;18.00;13.40;;;;;;;3.78;55.12;99575.08;1793806;79;21566;-74
2021/03/22 07:26:40;;;;;;;16.93;11.97;;;;;;;3.79;55.09;99583.30;1796936;79;21599;-75
2021/03/22 07:29:41;;;;;;;18.00;12.93;;;;;;;3.76;54.98;99579.28;1772085;79;21387;-75
2021/03/22 07:32:36;;;;;;;18.62;13.35;;;;;;;3.79;55.32;99578.81;1795825;77;21210;-75
2021/03/22 07:35:22;;;;;;;22.48;14.23;;;;;;;3.89;55.49;99573.72;1786976;79;21630;-74
2021/03/22 07:38:08;;;;;;;18.92;12.85;;;;;;;4.00;55.26;99563.59;1794537;79;21194;-75
2021/03/22 07:40:53;;;;;;;17.40;12.85;;;;;;;4.17;55.18;99566.78;1785450;79;21202;-74
2021/03/22 07:43:45;;;;;;;18.07;12.15;;;;;;;4.33;54.42;99559.91;1803727;79;22011;-77
2021/03/22 07:46:51;;;;;;;15.65;10.98;;;;;;;4.39;54.15;99558.95;1781946;78;21642;-74
2021/03/22 07:49:59;;;;;;;17.10;12.00;;;;;;;4.43;54.32;99571.97;1794857;79;21127;-75
2021/03/22 07:52:49;;;;;;;16.10;11.30;;;;;;;4.53;54.47;99567.36;1789129;79;21155;-75
2021/03/22 07:55:28;;;;;;;14.65;10.58;;;;;;;4.64;55.30;99576.54;1813733;79;21182;-75
2021/03/22 07:58:25;;;;;;;16.07;11.33;;;;;;;4.64;55.37;99571.25;1789192;79;21368;-76
2021/03/22 08:01:14;;;;;;;16.37;10.95;;;;;;;4.65;55.63;99559.62;1754504;79;21230;-74
2021/03/22 08:04:06;;;;;;;13.98;10.38;;;;;;;4.62;55.54;99566.71;1798924;79;21215;-75
2021/03/22 08:07:13;;;;;;;13.10;9.95;;;;;;;4.54;55.57;99561.02;1791756;77;21198;-75
2021/03/22 08:10:19;;;;;;;14.05;10.53;;;;;;;4.43;56.07;99569.32;1792256;79;21119;-73
2021/03/22 08:13:12;;;;;;;14.40;10.28;;;;;;;4.49;56.59;99560.95;1799992;77;21401;-75
2021/03/22 08:15:52;;;;;;;15.70;9.83;;;;;;;4.73;56.94;99565.01;1761243;79;21171;-74
2021/03/22 08:18:42;;;;;;;13.45;9.38;;;;;;;4.90;56.40;99545.96;1794381;79;21623;-76
2021/03/22 08:21:34;;;;;;;;;;;;;;;4.93;56.38;99554.70;1805591;79;21231;-75
2021/03/22 08:24:39;;;;;;;12.78;9.38;;;;;;;4.86;55.43;99560.70;1785988;79;20529;-75
2021/03/22 08:27:18;;;;;;;14.30;9.15;;;;;;;4.66;56.28;99562.53;1774260;79;21661;-76
2021/03/22 08:30:01;;;;;;;14.03;9.85;;;;;;;4.58;57.00;99557.66;1796755;79;21729;-74
2021/03/22 08:32:44;;;;;;;14.70;10.25;;;;;;;4.59;57.56;99555.81;1791681;79;21182;-75
2021/03/22 08:35:28;;;;;;;13.15;9.80;;;;;;;4.63;57.73;99564.34;1802637;79;21264;-75
2021/03/22 08:38:04;;;;;;;12.75;9.00;;;;;;;4.65;57.82;99566.23;1797619;79;21171;-75
2021/03/22 08:40:46;;;;;;;11.45;8.60;;;;;;;4.57;57.91;99565.83;1794362;79;21430;-75
2021/03/22 08:43:42;;;;;;;11.12;8.05;;;;;;;4.42;57.78;99561.12;1805741;79;21128;-75
2021/03/22 08:46:22;;;;;;;12.07;8.38;;;;;;;4.30;58.04;99559.86;1767677;77;21194;-74
2021/03/22 08:48:52;;;;;;;13.40;10.95;;;;;;;4.17;58.73;99571.55;1795677;79;21629;-76
2021/03/22 08:51:32;;;;;;;13.43;9.40;;;;;;;4.17;60.17;99572.86;1790655;79;21163;-74
2021/03/22 08:54:00;;;;;;;14.58;11.28;;;;;;;4.17;60.91;99582.11;1799783;79;21795;-74
2021/03/22 08:56:36;;;;;;;15.48;11.75;;;;;;;4.14;61.57;99583.11;1809840;79;21679;-74
2021/03/22 08:59:10;;;;;;;12.25;9.63;;;;;;;4.03;62.10;99578.17;1788956;79;21183;-78
2021/03/22 09:01:40;;;;;;;14.55;11.10;;;;;;;4.01;62.58;99589.49;1795985;79;21207;-74
2021/03/22 09:04:32;;;;;;;13.38;9.70;;;;;;;4.04;62.74;99584.27;1790983;79;21190;-75
2021/03/22 09:07:14;;;;;;;12.65;9.60;;;;;;;4.11;62.52;99583.59;1792886;77;21938;-76
2021/03/22 09:09:45;;;;;;;12.20;9.98;;;;;;;4.21;62.10;99582.44;1781423;79;21223;-74
2021/03/22 09:12:44;;;;;;;12.25;8.73;;;;;;;4.27;61.57;99588.61;1786422;79;21183;-74
2021/03/22 09:15:21;;;;;;;14.00;10.58;;;;;;;4.22;61.01;99589.34;1797326;79;21175;-73
2021/03/22 09:18:04;;;;;;;15.18;11.38;;;;;;;4.13;61.70;99583.64;1780780;80;21186;-74
2021/03/22 09:20:49;;;;;;;16.37;13.00;;;;;;;4.16;62.24;99587.66;1797429;79;21325;-74
2021/03/22 09:23:35;;;;;;;17.23;13.10;;;;;;;4.17;62.16;99587.92;1803755;79;21497;-75
2021/03/22 09:26:06;;;;;;;14.93;11.95;;;;;;;4.12;62.23;99597.10;1784483;77;21168;-75
2021/03/22 09:28:39;;;;;;;16.77;12.88;;;;;;;4.03;62.41;99600.64;1812213;79;21163;-75
2021/03/22 09:31:18;;;;;;;16.67;13.10;;;;;;;3.96;62.61;99590.73;1791624;77;21151;-74
2021/03/22 09:34:00;;;;;;;15.75;12.10;;;;;;;3.94;62.66;99594.92;1797547;79;21390;-75
2021/03/22 09:36:37;;;;;;;16.75;12.07;;;;;;;3.89;62.82;99592.20;1790907;79;23865;-74
2021/03/22 09:39:22;;;;;;;17.42;13.32;;;;;;;3.89;63.29;99594.84;1796747;79;21638;-75
2021/03/22 09:42:15;;;;;;;17.05;11.97;;;;;;;3.88;63.45;99595.89;1796489;79;21258;-75
2021/03/22 09:45:02;;;;;;;17.73;13.25;;;;;;;3.88;62.95;99601.67;1795608;79;21174;-74
2021/03/22 09:47:36;;;;;;;17.15;12.65;;;;;;;3.78;63.01;99597.00;1794188;79;21167;-75
2021/03/22 09:50:24;;;;;;;13.85;10.85;;;;;;;3.82;63.22;99600.80;1793590;79;21210;-75
2021/03/22 09:53:06;;;;;;;16.80;12.80;;;;;;;3.91;63.05;99597.23;1745840;79;21151;-76
2021/03/22 09:55:45;;;;;;;15.55;12.45;;;;;;;3.97;63.10;99594.98;1762256;79;21646;-76
2021/03/22 09:58:37;;;;;;;16.23;12.58;;;;;;;4.09;62.93;99594.94;1800739;79;21178;-75
2021/03/22 10:01:27;;;;;;;16.85;13.08;;;;;;;4.17;62.44;99579.47;1789489;79;21400;-73
2021/03/22 10:04:17;;;;;;;16.07;13.35;;;;;;;4.26;62.20;99600.23;1796635;77;21180;-75
2021/03/22 10:07:16;;;;;;;16.95;13.55;;;;;;;4.33;61.96;99605.64;1793641;79;21630;-74
2021/03/22 10:10:00;;;;;;;14.80;11.65;;;;;;;4.41;61.69;99603.15;1787710;79;21196;-74
2021/03/22 10:12:40;;;;;;;15.05;11.75;;;;;;;4.55;61.20;99600.98;1777538;79;21191;-73
2021/03/22 10:15:18;;;;;;;14.55;12.20;;;;;;;4.58;61.06;99604.47;1796583;77;21634;-75
2021/03/22 10:17:58;;;;;;;14.43;11.53;;;;;;;4.55;60.49;99602.30;1789515;79;21182;-74
2021/03/22 10:20:41;;;;;;;17.00;13.03;;;;;;;4.52;60.51;99595.64;1793957;79;21523;-75
2021/03/22 10:23:23;;;;;;;15.08;11.30;;;;;;;4.50;59.80;99597.72;1794606;79;21638;-75
2021/03/22 10:26:07;;;;;;;14.98;11.83;;;;;;;4.47;59.40;99599.52;1798258;77;21183;-75
2021/03/22 10:28:35;;;;;;;18.10;13.38;;;;;;;4.35;59.50;99586.39;1795945;77;22168;-76
2021/03/22 10:31:10;;;;;;;16.20;12.65;;;;;;;4.25;59.75;99602.09;1793060;77;21194;-73
2021/03/22 10:33:38;;;;;;;15.48;12.47;;;;;;;4.23;59.81;99594.91;1789505;79;21214;-75
2021/03/22 10:36:11;;;;;;;15.83;12.43;;;;;;;4.22;60.05;99606.52;1749473;79;21602;-74
2021/03/22 10:38:39;;;;;;;15.70;13.22;;;;;;;4.15;59.93;99600.59;1771320;77;21210;-75
2021/03/22 10:41:28;;;;;;;16.95;12.88;;;;;;;4.12;59.96;99605.03;1794142;78;21376;-75
2021/03/22 10:44:05;;;;;;;15.90;13.40;;;;;;;4.05;59.91;99604.35;1794911;78;21195;-74
2021/03/22 10:46:33;;;;;;;19.45;13.90;;;;;;;3.98;59.80;99596.57;1787329;77;21163;-74
2021/03/22 10:49:23;;;;;;;16.05;13.40;;;;;;;4.01;59.88;99594.77;1795859;77;22271;-74
2021/03/22 10:51:53;;;;;;;16.55;13.35;;;;;;;4.08;59.92;99595.95;1794871;77;21265;-75
2021/03/22 10:54:43;;;;;;;15.30;11.88;;;;;;;4.17;59.76;99593.20;1794247;77;21374;-75
2021/03/22 10:57:27;;;;;;;17.05;12.43;;;;;;;4.20;60.18;99584.28;1795041;79;21296;-75
2021/03/22 10:59:59;;;;;;;18.12;14.13;;;;;;;4.23;60.26;99583.01;1800091;77;21182;-75
2021/03/22 11:02:41;;;;;;;19.80;13.78;;;;;;;4.22;60.31;99587.50;1802106;77;21206;-73
2021/03/22 11:05:13;;;;;;;17.02;13.43;;;;;;;4.26;60.13;99587.82;1796461;79;21127;-75
2021/03/22 11:07:43;;;;;;;17.15;13.48;;;;;;;4.24;59.78;99585.92;1806062;77;21384;-75
2021/03/22 11:10:20;;;;;;;18.37;14.05;;;;;;;4.14;59.71;99577.30;1748916;79;21178;-74
2021/03/22 11:12:49;;;;;;;16.57;13.28;;;;;;;4.11;59.78;99586.23;1794193;79;21108;-75
2021/03/22 11:15:31;;;;;;;21.00;15.78;;;;;;;4.11;59.80;99584.91;1805885;79;21662;-74
2021/03/22 11:18:04;;;;;;;18.87;14.73;;;;;;;4.15;59.74;99580.25;1788562;79;21107;-75
2021/03/22 11:20:32;;;;;;;20.90;15.70;;;;;;;4.20;59.49;99579.00;1795323;79;22303;-75
2021/03/22 11:23:27;;;;;;;18.32;14.98;;;;;;;4.21;59.56;99578.47;1803682;79;21217;-75
2021/03/22 11:26:25;;;;;;;20.10;15.68;;;;;;;4.17;59.71;99584.76;1796644;79;21619;-74
2021/03/22 11:29:18;;;;;;;21.75;16.40;;;;;;;4.09;59.80;99587.00;1766245;79;21209;-74
2021/03/22 11:31:48;;;;;;;19.92;15.18;;;;;;;4.04;60.30;99587.70;1793301;79;21186;-75
2021/03/22 11:34:29;;;;;;;18.90;14.45;;;;;;;3.94;60.89;99593.60;1792314;77;21357;-74
2021/03/22 11:37:08;;;;;;;;;;;;;;;3.86;61.21;99590.03;1811250;79;21613;-75
2021/03/22 11:39:38;;;;;;;20.15;15.60;;;;;;;3.82;61.82;99602.12;1785981;79;20348;-75
2021/03/22 11:42:20;;;;;;;20.90;15.48;;;;;;;3.78;61.84;99594.36;1791260;79;21186;-75
2021/03/22 11:44:48;;;;;;;18.42;14.93;;;;;;;3.78;62.04;99602.28;1790330;77;21166;-75
2021/03/22 11:47:39;;;;;;;19.30;15.10;;;;;;;3.75;61.94;99607.54;1800468;79;21202;-74
2021/03/22 11:50:37;;;;;;;20.80;15.90;;;;;;;3.73;62.02;99594.28;1791222;79;21583;-75
2021/03/22 11:53:12;;;;;;;18.98;15.28;;;;;;;3.69;62.23;99595.80;1783487;79;21167;-75
2021/03/22 11:55:55;;;;;;;20.97;16.12;;;;;;;3.66;62.61;99601.54;1789164;79;21215;-74
2021/03/22 11:58:37;;;;;;;21.35;16.15;;;;;;;3.64;62.86;99595.69;1786863;79;21194;-74
2021/03/22 12:01:25;;;;;;;18.00;13.93;;;;;;;3.62;62.86;99597.25;1800014;79;21376;-75
2021/03/22 12:04:16;;;;;;;20.07;16.27;;;;;;;3.64;63.03;99609.69;1804820;78;22808;-74
2021/03/22 12:07:00;;;;;;;20.85;16.60;;;;;;;3.53;63.30;99613.17;1814216;77;21628;-75
2021/03/22 12:09:29;;;;;;;21.40;17.23;;;;;;;3.48;63.68;99612.53;1808900;77;21612;-76
2021/03/22 12:12:01;;;;;;;23.05;18.10;;;;;;;3.46;64.09;99608.02;1804556;77;21260;-74
2021/03/22 12:14:30;;;;;;;21.35;16.15;;;;;;;3.37;64.42;99607.30;1785505;78;21215;-74